createdAt,value
2022-08-10T00:00:15.721Z,56.70
2022-08-10T00:03:19.768Z,56.87
2022-08-10T00:06:22.624Z,57.07
2022-08-10T00:09:25.744Z,57.34
2022-08-10T00:12:53.137Z,57.81
2022-08-10T00:15:53.739Z,57.76
2022-08-10T00:18:58.802Z,57.69
2022-08-10T00:22:01.721Z,57.67
2022-08-10T00:25:05.173Z,57.83
2022-08-10T00:28:08.781Z,58.25
2022-08-10T00:31:11.410Z,59.01
2022-08-10T00:34:15.572Z,59.30
2022-08-10T00:37:19.700Z,59.01
2022-08-10T00:40:37.363Z,59.86
2022-08-10T00:43:40.638Z,59.93
2022-08-10T00:46:43.473Z,60.11
2022-08-10T00:49:47.921Z,59.66
2022-08-10T00:52:51.852Z,60.04
2022-08-10T00:57:00.894Z,60.07
2022-08-10T00:59:18.563Z,60.04
2022-08-10T01:02:21.235Z,60.34
2022-08-10T01:05:25.930Z,60.30
2022-08-10T01:08:32.950Z,60.83
2022-08-10T01:12:38.710Z,61.29
2022-08-10T01:15:15.329Z,61.72
2022-08-10T01:18:32.106Z,62.42
2022-08-10T01:21:57.384Z,62.31
2022-08-10T01:25:14.676Z,62.74
2022-08-10T01:28:31.781Z,62.60
2022-08-10T01:31:47.831Z,62.88
2022-08-10T01:34:52.851Z,62.91
2022-08-10T01:38:03.425Z,63.03
2022-08-10T01:41:09.876Z,62.62
2022-08-10T01:44:15.831Z,62.48
2022-08-10T01:47:41.864Z,62.98
2022-08-10T01:50:58.892Z,63.24
2022-08-10T01:54:10.652Z,63.29
2022-08-10T01:57:17.896Z,63.32
2022-08-10T02:00:22.396Z,62.96
2022-08-10T02:03:27.858Z,63.47
2022-08-10T02:06:33.271Z,63.95
2022-08-10T02:09:40.325Z,63.81
2022-08-10T02:12:44.751Z,64.01
2022-08-10T02:16:02.062Z,63.56
2022-08-10T02:19:08.512Z,63.99
2022-08-10T02:22:45.926Z,64.18
2022-08-10T02:25:43.779Z,64.19
2022-08-10T02:28:47.385Z,64.28
2022-08-10T02:31:51.511Z,64.21
2022-08-10T02:34:59.313Z,64.54
2022-08-10T02:38:06.091Z,64.46
2022-08-10T02:45:14.974Z,64.38
2022-08-10T02:45:23.255Z,64.50
2022-08-10T02:48:13.435Z,64.54
2022-08-10T02:52:08.078Z,64.87
2022-08-10T02:54:52.150Z,64.61
2022-08-10T02:58:12.744Z,64.92
2022-08-10T03:01:25.803Z,65.06
2022-08-10T03:04:57.296Z,66.28
2022-08-10T03:08:02.933Z,66.18
2022-08-10T03:11:08.478Z,66.19
2022-08-10T03:14:12.246Z,65.95
2022-08-10T03:17:17.517Z,66.14
2022-08-10T03:20:38.342Z,66.16
2022-08-10T03:23:48.802Z,65.54
2022-08-10T03:26:52.889Z,65.37
2022-08-10T03:30:29.511Z,66.73
2022-08-10T03:33:21.628Z,66.66
2022-08-10T03:36:40.447Z,67.05
2022-08-10T03:39:48.386Z,66.56
2022-08-10T03:42:55.159Z,66.57
2022-08-10T03:46:02.185Z,67.15
2022-08-10T03:49:07.007Z,67.42
2022-08-10T03:52:10.734Z,67.60
2022-08-10T03:56:27.166Z,67.42
2022-08-10T03:58:38.450Z,67.74
2022-08-10T04:02:45.760Z,67.54
2022-08-10T04:05:06.207Z,67.47
2022-08-10T04:08:09.248Z,68.02
2022-08-10T04:11:14.115Z,67.97
2022-08-10T04:14:38.191Z,67.65
2022-08-10T04:17:59.507Z,67.98
2022-08-10T04:21:08.337Z,67.93
2022-08-10T04:24:24.781Z,69.28
2022-08-10T04:27:34.563Z,69.14
2022-08-10T04:30:38.189Z,69.08
2022-08-10T04:33:44.369Z,69.48
2022-08-10T04:36:48.391Z,70.04
2022-08-10T04:39:51.658Z,69.82
2022-08-10T04:43:02.326Z,67.96
2022-08-10T04:46:42.780Z,66.94
2022-08-10T04:49:54.495Z,65.47
2022-08-10T04:52:51.817Z,63.66
2022-08-10T04:55:54.474Z,62.04
2022-08-10T04:58:58.603Z,58.91
2022-08-10T05:02:30.402Z,60.24
2022-08-10T05:05:23.980Z,58.84
2022-08-10T05:08:27.144Z,58.68
2022-08-10T05:11:30.132Z,57.65
2022-08-10T05:14:34.367Z,55.18
2022-08-10T05:17:38.060Z,54.43
2022-08-10T05:20:40.744Z,53.03
2022-08-10T05:23:43.376Z,51.87
2022-08-10T05:27:00.590Z,50.96
2022-08-10T05:30:13.765Z,50.12
2022-08-10T05:33:16.595Z,50.40
2022-08-10T05:36:19.696Z,49.85
2022-08-10T05:39:30.569Z,49.74
2022-08-10T05:42:35.602Z,50.92
2022-08-10T05:46:18.717Z,51.24
2022-08-10T05:49:02.602Z,50.72
2022-08-10T05:52:06.090Z,50.28
2022-08-10T05:55:10.105Z,49.56
2022-08-10T05:58:12.872Z,49.66
2022-08-10T06:01:20.077Z,48.72
2022-08-10T06:04:31.501Z,48.85
2022-08-10T06:07:38.466Z,48.20
2022-08-10T06:12:23.787Z,47.55
2022-08-10T06:14:28.358Z,46.12
2022-08-10T06:17:33.316Z,46.02
2022-08-10T06:20:36.583Z,46.83
2022-08-10T06:23:40.016Z,46.66
2022-08-10T06:26:42.930Z,46.49
2022-08-10T06:29:46.748Z,45.55
2022-08-10T06:32:52.453Z,45.46
2022-08-10T06:35:57.453Z,44.21
2022-08-10T06:39:22.970Z,43.21
2022-08-10T06:42:29.152Z,41.99
2022-08-10T06:45:37.118Z,41.06
2022-08-10T06:48:48.095Z,39.72
2022-08-10T06:51:57.224Z,38.56
2022-08-10T06:55:05.337Z,37.46
2022-08-10T06:58:11.823Z,39.13
2022-08-10T07:01:21.001Z,38.46
2022-08-10T07:04:32.743Z,37.56
2022-08-10T07:07:39.945Z,38.24
2022-08-10T07:10:46.285Z,37.24
2022-08-10T07:14:15.941Z,37.05
2022-08-10T07:17:15.320Z,36.78
2022-08-10T07:20:22.042Z,36.48
2022-08-10T07:23:59.769Z,35.39
2022-08-10T07:26:51.526Z,35.92
2022-08-10T07:29:55.136Z,35.76
2022-08-10T07:32:59.775Z,34.68
2022-08-10T07:36:05.041Z,34.35
2022-08-10T07:39:09.995Z,34.31
2022-08-10T07:42:14.886Z,32.59
2022-08-10T07:45:18.068Z,33.62
2022-08-10T07:48:26.004Z,32.80
2022-08-10T07:51:33.098Z,32.01
2022-08-10T07:54:41.575Z,32.17
2022-08-10T07:57:47.796Z,32.00
2022-08-10T08:00:55.084Z,31.06
2022-08-10T08:04:10.752Z,31.74
2022-08-10T08:07:20.775Z,31.05
2022-08-10T08:10:26.847Z,29.31
2022-08-10T08:13:31.266Z,29.32
2022-08-10T08:16:36.055Z,29.52
2022-08-10T08:19:45.862Z,29.59
2022-08-10T08:24:09.602Z,28.44
2022-08-10T08:26:15.733Z,29.10
2022-08-10T08:29:20.511Z,29.15
2022-08-10T08:32:25.783Z,28.15
2022-08-10T08:35:28.541Z,27.64
2022-08-10T08:38:35.056Z,28.47
2022-08-10T08:41:54.751Z,27.60
2022-08-10T08:45:10.035Z,27.95
2022-08-10T08:48:28.630Z,28.13
2022-08-10T08:52:07.181Z,27.67
2022-08-10T08:56:03.574Z,26.90
2022-08-10T08:59:04.131Z,27.53
2022-08-10T09:02:19.099Z,26.95
2022-08-10T09:05:32.702Z,27.20
2022-08-10T09:09:11.402Z,25.77
2022-08-10T09:12:37.008Z,25.89
2022-08-10T09:15:47.818Z,25.30
2022-08-10T09:18:54.412Z,25.26
2022-08-10T09:22:17.316Z,24.99
2022-08-10T09:25:24.515Z,23.51
2022-08-10T09:28:37.239Z,22.53
2022-08-10T09:35:39.226Z,21.92
2022-08-10T09:38:49.794Z,21.57
2022-08-10T09:42:02.257Z,21.09
2022-08-10T09:45:13.586Z,22.23
2022-08-10T09:48:27.055Z,21.98
2022-08-10T09:51:46.422Z,21.39
2022-08-10T09:55:01.594Z,21.51
2022-08-10T09:58:28.355Z,21.73
2022-08-10T10:02:03.919Z,21.70
2022-08-10T10:05:13.703Z,22.73
2022-08-10T10:08:25.535Z,21.44
2022-08-10T10:11:37.649Z,20.79
2022-08-10T10:15:25.200Z,20.89
2022-08-10T10:18:43.710Z,22.21
2022-08-10T10:21:54.729Z,22.46
2022-08-10T10:25:19.816Z,21.78
2022-08-10T10:29:19.743Z,21.74
2022-08-10T10:32:09.539Z,20.44
2022-08-10T10:35:23.596Z,21.47
2022-08-10T10:38:32.323Z,21.60
2022-08-10T10:41:56.243Z,21.06
2022-08-10T10:45:17.331Z,20.98
2022-08-10T10:48:29.007Z,21.78
2022-08-10T10:51:39.050Z,21.15
2022-08-10T10:54:51.708Z,19.12
2022-08-10T10:58:01.330Z,19.42
2022-08-10T11:01:12.280Z,20.18
2022-08-10T11:04:24.306Z,19.86
2022-08-10T11:07:33.894Z,19.66
2022-08-10T11:10:47.502Z,20.20
2022-08-10T11:14:24.408Z,20.56
2022-08-10T11:17:33.285Z,21.25
2022-08-10T11:20:42.234Z,20.57
2022-08-10T11:24:47.263Z,20.22
2022-08-10T11:27:22.530Z,19.41
2022-08-10T11:30:32.336Z,19.50
2022-08-10T11:34:11.285Z,19.58
2022-08-10T11:37:19.700Z,20.97
2022-08-10T11:40:30.946Z,20.33
2022-08-10T11:43:39.061Z,21.12
2022-08-10T11:46:49.826Z,21.71
2022-08-10T11:49:56.823Z,21.16
2022-08-10T11:53:09.824Z,20.80
2022-08-10T11:56:19.621Z,20.36
2022-08-10T11:59:43.474Z,20.55
2022-08-10T12:02:51.646Z,22.48
2022-08-10T12:05:56.729Z,22.09
2022-08-10T12:10:11.564Z,20.62
2022-08-10T12:12:29.721Z,22.63
2022-08-10T12:15:37.614Z,22.24
2022-08-10T12:18:46.184Z,22.02
2022-08-10T12:21:55.463Z,23.69
2022-08-10T12:25:01.486Z,22.02
2022-08-10T12:28:12.141Z,21.96
2022-08-10T12:31:17.625Z,21.74
2022-08-10T12:34:30.448Z,21.19
2022-08-10T12:37:39.910Z,21.94
2022-08-10T12:40:48.450Z,21.74
2022-08-10T12:44:07.187Z,22.28
2022-08-10T12:47:21.307Z,22.84
2022-08-10T12:50:33.836Z,21.91
2022-08-10T12:53:48.753Z,21.82
2022-08-10T12:56:58.261Z,21.64
2022-08-10T13:00:03.543Z,22.53
2022-08-10T13:03:08.921Z,22.68
2022-08-10T13:06:12.357Z,21.76
2022-08-10T13:09:15.698Z,22.30
2022-08-10T13:12:36.582Z,21.67
2022-08-10T13:15:50.776Z,22.71
2022-08-10T13:18:59.473Z,21.17
2022-08-10T13:22:03.807Z,20.91
2022-08-10T13:25:09.409Z,22.00
2022-08-10T13:28:37.717Z,21.66
2022-08-10T13:32:09.941Z,20.92
2022-08-10T13:35:11.821Z,20.71
2022-08-10T13:38:20.821Z,21.66
2022-08-10T13:41:27.840Z,22.08
2022-08-10T13:44:33.041Z,22.76
2022-08-10T13:47:48.469Z,22.57
2022-08-10T13:50:58.609Z,22.44
2022-08-10T13:54:02.991Z,22.55
2022-08-10T13:57:06.870Z,22.50
2022-08-10T14:00:37.497Z,22.98
2022-08-10T14:03:39.225Z,22.70
2022-08-10T14:06:43.250Z,21.84
2022-08-10T14:09:47.815Z,20.70
2022-08-10T14:12:51.880Z,20.74
2022-08-10T14:15:57.607Z,21.30
2022-08-10T14:19:06.082Z,20.43
2022-08-10T14:22:08.979Z,20.01
2022-08-10T14:25:14.262Z,20.44
2022-08-10T14:28:19.457Z,21.02
2022-08-10T14:31:25.075Z,21.33
2022-08-10T14:36:05.017Z,20.67
2022-08-10T14:37:58.447Z,20.92
2022-08-10T14:41:03.513Z,21.35
2022-08-10T14:44:09.021Z,21.81
2022-08-10T14:47:52.532Z,20.99
2022-08-10T14:50:38.928Z,20.95
2022-08-10T14:54:02.037Z,21.62
2022-08-10T14:57:11.250Z,21.85
2022-08-10T15:00:39.091Z,22.07
2022-08-10T15:04:01.431Z,22.23
2022-08-10T15:07:12.690Z,22.26
2022-08-10T15:10:21.749Z,21.51
2022-08-10T15:13:33.831Z,21.85
2022-08-10T15:16:37.900Z,22.76
2022-08-10T15:20:04.111Z,22.11
2022-08-10T15:23:30.723Z,21.90
2022-08-10T15:26:37.385Z,22.07
2022-08-10T15:29:56.956Z,21.82
2022-08-10T15:33:57.001Z,22.79
2022-08-10T15:37:39.628Z,22.71
2022-08-10T15:40:51.211Z,22.17
2022-08-10T15:43:55.894Z,22.65
2022-08-10T15:47:02.625Z,23.52
2022-08-10T15:50:08.546Z,23.19
2022-08-10T15:53:16.780Z,23.50
2022-08-10T15:56:31.784Z,23.29
2022-08-10T15:59:41.496Z,23.81
2022-08-10T16:02:51.385Z,24.03
2022-08-10T16:06:00.615Z,23.61
2022-08-10T16:10:22.410Z,23.67
2022-08-10T16:12:39.097Z,23.92
2022-08-10T16:15:43.250Z,23.86
2022-08-10T16:18:47.321Z,24.63
2022-08-10T16:21:56.919Z,25.05
2022-08-10T16:25:01.745Z,24.58
2022-08-10T16:28:07.800Z,24.13
2022-08-10T16:31:20.488Z,25.07
2022-08-10T16:34:24.524Z,25.24
2022-08-10T16:37:56.667Z,25.06
2022-08-10T16:40:58.480Z,24.27
2022-08-10T16:44:05.226Z,24.35
2022-08-10T16:47:09.348Z,23.62
2022-08-10T16:50:15.616Z,24.17
2022-08-10T16:53:20.936Z,25.13
2022-08-10T16:56:29.036Z,24.66
2022-08-10T16:59:36.471Z,25.21
2022-08-10T17:02:41.835Z,25.62
2022-08-10T17:06:03.389Z,25.78
2022-08-10T17:09:18.489Z,26.92
2022-08-10T17:12:27.013Z,27.33
2022-08-10T17:15:31.783Z,27.38
2022-08-10T17:18:38.696Z,27.32
2022-08-10T17:21:51.841Z,26.82
2022-08-10T17:25:01.231Z,26.08
2022-08-10T17:28:09.567Z,26.52
2022-08-10T17:31:23.738Z,26.36
2022-08-10T17:34:47.887Z,27.26
2022-08-10T17:37:57.443Z,27.35
2022-08-10T17:41:05.875Z,28.12
2022-08-10T17:44:10.301Z,28.08
2022-08-10T17:47:15.866Z,28.13
2022-08-10T17:50:23.426Z,28.86
2022-08-10T17:53:30.410Z,29.08
2022-08-10T17:56:35.604Z,29.14
2022-08-10T17:59:41.792Z,29.81
2022-08-10T18:02:49.655Z,30.58
2022-08-10T18:05:56.252Z,30.92
2022-08-10T18:09:03.260Z,31.86
2022-08-10T18:12:18.365Z,32.52
2022-08-10T18:15:25.554Z,32.90
2022-08-10T18:18:31.600Z,33.75
2022-08-10T18:21:38.865Z,33.69
2022-08-10T18:24:46.511Z,33.92
2022-08-10T18:28:01.062Z,34.13
2022-08-10T18:31:09.635Z,34.12
2022-08-10T18:34:19.889Z,34.53
2022-08-10T18:37:25.023Z,34.89
2022-08-10T18:40:36.409Z,34.83
2022-08-10T18:44:05.602Z,35.34
2022-08-10T18:47:15.916Z,35.92
2022-08-10T18:50:24.404Z,36.08
2022-08-10T18:53:34.200Z,36.11
2022-08-10T18:56:49.149Z,36.39
2022-08-10T19:00:08.079Z,36.46
2022-08-10T19:03:53.601Z,36.44
2022-08-10T19:07:16.799Z,36.80
2022-08-10T19:10:36.841Z,37.28
2022-08-10T19:13:51.153Z,37.75
2022-08-10T19:17:02.710Z,37.19
2022-08-10T19:20:14.415Z,36.42
2022-08-10T19:23:43.113Z,36.71
2022-08-10T19:26:52.889Z,36.38
2022-08-10T19:30:12.126Z,36.78
2022-08-10T19:33:26.745Z,37.62
2022-08-10T19:36:41.639Z,37.76
2022-08-10T19:39:57.619Z,38.34
2022-08-10T19:43:09.237Z,38.79
2022-08-10T19:46:27.455Z,38.93
2022-08-10T19:49:40.127Z,38.09
2022-08-10T19:52:50.594Z,38.31
2022-08-10T19:56:24.352Z,37.94
2022-08-10T20:00:15.003Z,38.53
2022-08-10T20:03:12.431Z,38.99
2022-08-10T20:06:20.766Z,38.97
2022-08-10T20:09:31.687Z,39.95
2022-08-10T20:12:47.160Z,39.88
2022-08-10T20:15:58.409Z,40.69
2022-08-10T20:19:07.579Z,41.20
2022-08-10T20:22:11.394Z,41.70
2022-08-10T20:25:19.948Z,41.57
2022-08-10T20:28:32.768Z,42.10
2022-08-10T20:31:42.019Z,42.55
2022-08-10T20:34:49.682Z,42.54
2022-08-10T20:38:04.679Z,43.33
2022-08-10T20:41:17.594Z,43.41
2022-08-10T20:44:36.733Z,43.46
2022-08-10T20:47:57.572Z,43.15
2022-08-10T20:51:03.447Z,43.63
2022-08-10T20:54:09.823Z,43.46
2022-08-10T20:57:56.189Z,43.40
2022-08-10T21:01:16.965Z,43.04
2022-08-10T21:04:41.076Z,44.05
2022-08-10T21:08:02.572Z,43.83
2022-08-10T21:11:12.568Z,43.56
2022-08-10T21:14:29.581Z,43.53
2022-08-10T21:17:55.007Z,43.68
2022-08-10T21:21:08.396Z,43.75
2022-08-10T21:24:20.042Z,44.22
2022-08-10T21:27:47.136Z,43.79
2022-08-10T21:31:26.803Z,44.42
2022-08-10T21:35:04.700Z,44.29
2022-08-10T21:38:16.744Z,44.18
2022-08-10T21:41:57.587Z,44.27
2022-08-10T21:45:58.769Z,44.60
2022-08-10T21:49:15.266Z,44.42
2022-08-10T21:52:53.370Z,44.80
2022-08-10T21:56:22.937Z,44.68
2022-08-10T21:59:56.124Z,44.88
2022-08-10T22:03:18.721Z,44.86
2022-08-10T22:06:52.632Z,45.11
2022-08-10T22:10:16.741Z,45.00
2022-08-10T22:13:37.514Z,45.15
2022-08-10T22:17:04.974Z,45.32
2022-08-10T22:20:32.324Z,45.64
2022-08-10T22:24:16.727Z,45.05
2022-08-10T22:27:48.580Z,45.00
2022-08-10T22:31:31.868Z,45.40
2022-08-10T22:35:10.856Z,45.69
2022-08-10T22:38:44.329Z,45.75
2022-08-10T22:42:09.879Z,45.94
2022-08-10T22:45:35.538Z,46.14
2022-08-10T22:49:00.155Z,46.41
2022-08-10T22:52:09.601Z,46.82
2022-08-10T22:55:35.004Z,46.88
2022-08-10T22:58:42.990Z,46.67
2022-08-10T23:02:08.117Z,47.23
2022-08-10T23:05:14.196Z,47.19
2022-08-10T23:08:30.282Z,47.60
2022-08-10T23:11:37.282Z,47.80
2022-08-10T23:14:45.209Z,48.08
2022-08-10T23:18:25.418Z,48.36
2022-08-10T23:22:03.099Z,48.38
2022-08-10T23:25:07.086Z,48.91
2022-08-10T23:28:13.222Z,49.03
2022-08-10T23:31:58.368Z,49.25
2022-08-10T23:36:31.880Z,49.28
2022-08-10T23:38:13.512Z,49.39
2022-08-10T23:41:17.369Z,49.61
2022-08-10T23:44:22.077Z,49.79
2022-08-10T23:47:27.310Z,49.93
2022-08-10T23:50:33.578Z,50.20
2022-08-10T23:53:39.652Z,50.81
2022-08-10T23:56:47.478Z,51.13
2022-08-10T23:59:53.901Z,51.23
